Time;durP1;ratioP1;P1;durP2;ratioP2;P2;SDS_P1;SDS_P2;PMS_P1;PMS_P2;Temp;Humidity;BMP_temperature;BMP_pressure;BME280_temperature;BME280_humidity;BME280_pressure;Samples;Min_cycle;Max_cycle;Signal;HPM_P1;HPM_P2
2023/05/12 00:01:18;;;;;;;10.13;7.10;;;;;;;14.49;82.79;101740.41;7392645;19;20500;-58
2023/05/12 00:03:45;;;;;;;9.93;8.35;;;;;;;14.45;82.71;101736.22;7391321;19;20033;-59
2023/05/12 00:06:13;;;;;;;10.55;8.80;;;;;;;14.49;82.76;101748.41;7392195;19;20035;-58
2023/05/12 00:08:40;;;;;;;11.40;9.45;;;;;;;14.44;82.76;101741.69;7391785;19;20018;-59
2023/05/12 00:11:07;;;;;;;10.35;8.38;;;;;;;14.42;82.92;101744.44;7392466;19;20070;-58
2023/05/12 00:13:34;;;;;;;10.77;9.07;;;;;;;14.44;82.70;101742.53;7392319;19;20366;-57
2023/05/12 00:16:02;;;;;;;11.30;9.23;;;;;;;14.47;82.67;101746.78;7389770;19;20043;-56
2023/05/12 00:18:29;;;;;;;11.65;9.10;;;;;;;14.43;82.52;101751.50;7390739;19;20041;-57
2023/05/12 00:20:56;;;;;;;10.23;8.75;;;;;;;14.45;82.81;101746.88;7387133;19;20021;-58
2023/05/12 00:23:23;;;;;;;10.65;8.82;;;;;;;14.47;82.30;101750.31;7391631;19;20106;-57
2023/05/12 00:25:50;;;;;;;10.23;8.50;;;;;;;14.45;82.31;101751.38;7390861;19;20014;-57
2023/05/12 00:28:18;;;;;;;10.23;8.80;;;;;;;14.41;82.21;101744.56;7390635;19;20022;-57
2023/05/12 00:30:45;;;;;;;10.60;9.07;;;;;;;14.38;82.36;101746.50;7390394;19;20014;-57
2023/05/12 00:33:12;;;;;;;11.50;9.82;;;;;;;14.33;82.46;101755.78;7389569;19;20017;-57
2023/05/12 00:35:39;;;;;;;11.13;9.93;;;;;;;14.32;82.59;101754.94;7387948;19;20479;-57
2023/05/12 00:38:06;;;;;;;12.63;10.40;;;;;;;14.33;82.54;101758.47;7389399;19;20018;-57
2023/05/12 00:40:33;;;;;;;11.63;9.93;;;;;;;14.35;82.15;101761.88;7394363;19;20043;-57
2023/05/12 00:43:00;;;;;;;11.38;9.77;;;;;;;14.34;82.17;101765.47;7391101;19;20018;-57
2023/05/12 00:45:30;;;;;;;11.95;10.13;;;;;;;14.26;82.36;101757.22;7390051;19;20019;-57
2023/05/12 00:47:57;;;;;;;12.07;10.77;;;;;;;14.21;82.34;101762.88;7390894;19;20018;-58
2023/05/12 00:50:25;;;;;;;12.40;10.80;;;;;;;14.20;82.27;101765.66;7389682;19;20015;-57
2023/05/12 00:52:52;;;;;;;12.18;10.55;;;;;;;14.17;82.23;101774.72;7391072;19;20039;-57
2023/05/12 00:55:19;;;;;;;12.38;10.00;;;;;;;14.11;82.35;101775.16;7386619;19;20017;-57
2023/05/12 00:57:46;;;;;;;12.10;10.73;;;;;;;14.07;82.36;101763.88;7389405;19;20110;-57
2023/05/12 01:00:14;;;;;;;12.55;10.40;;;;;;;14.06;82.35;101766.66;7387735;19;20021;-57
2023/05/12 01:02:41;;;;;;;12.00;10.70;;;;;;;14.10;82.04;101757.47;7388859;19;20112;-57
2023/05/12 01:05:08;;;;;;;13.02;11.18;;;;;;;14.14;81.76;101759.81;7389855;19;20019;-57
2023/05/12 01:07:37;;;;;;;12.35;10.95;;;;;;;14.09;82.14;101759.28;7390603;19;20014;-57
2023/05/12 01:10:16;;;;;;;13.23;10.45;;;;;;;14.15;81.62;101761.50;7387526;19;20023;-57
2023/05/12 01:12:43;;;;;;;12.18;10.45;;;;;;;14.11;81.67;101768.00;7388730;19;20051;-57
2023/05/12 01:15:11;;;;;;;13.50;10.60;;;;;;;14.08;81.76;101762.94;7387953;19;20025;-57
2023/05/12 01:17:45;;;;;;;12.68;10.70;;;;;;;14.03;81.76;101773.03;7390787;19;20022;-57
2023/05/12 01:20:15;;;;;;;13.15;11.52;;;;;;;13.99;81.84;101776.88;7384717;19;20053;-57
2023/05/12 01:22:42;;;;;;;12.98;11.32;;;;;;;13.97;82.03;101777.97;7388756;19;20014;-57
2023/05/12 01:25:11;;;;;;;13.50;11.80;;;;;;;13.96;81.49;101770.94;7388987;19;20113;-57
2023/05/12 01:27:40;;;;;;;15.35;11.93;;;;;;;13.94;81.40;101775.53;7389893;19;20043;-58
2023/05/12 01:30:08;;;;;;;15.48;13.02;;;;;;;13.90;81.49;101774.91;7385682;19;20014;-58
2023/05/12 01:32:37;;;;;;;14.88;12.63;;;;;;;13.84;81.79;101785.97;7389774;19;20015;-57
2023/05/12 01:35:04;;;;;;;14.90;13.30;;;;;;;13.81;81.75;101783.53;7388513;19;20094;-57
2023/05/12 01:37:32;;;;;;;14.77;13.15;;;;;;;13.86;81.65;101790.25;7390077;19;20055;-57
2023/05/12 01:39:59;;;;;;;14.07;12.50;;;;;;;13.92;81.48;101782.75;7385300;19;20373;-57
2023/05/12 01:42:26;;;;;;;15.82;13.15;;;;;;;13.89;81.35;101776.72;7387066;19;20082;-57
2023/05/12 01:44:53;;;;;;;15.13;13.20;;;;;;;13.83;81.42;101782.47;7388654;19;20010;-57
2023/05/12 01:47:20;;;;;;;16.30;13.60;;;;;;;13.85;81.26;101782.34;7389066;19;20025;-57
2023/05/12 01:49:47;;;;;;;15.30;13.68;;;;;;;13.80;81.25;101787.16;7387139;19;20014;-57
2023/05/12 01:52:14;;;;;;;16.27;14.15;;;;;;;13.81;81.14;101788.84;7386843;19;20032;-57
2023/05/12 01:54:41;;;;;;;15.20;13.25;;;;;;;13.72;81.34;101784.19;7385095;19;20036;-58
2023/05/12 01:57:08;;;;;;;15.38;12.25;;;;;;;13.77;81.22;101798.84;7389602;19;20412;-58
2023/05/12 01:59:36;;;;;;;18.55;14.90;;;;;;;13.79;81.00;101794.28;7386808;19;20074;-58
2023/05/12 02:02:03;;;;;;;15.43;13.32;;;;;;;13.82;80.87;101799.41;7389410;19;20043;-58
2023/05/12 02:04:30;;;;;;;15.43;13.07;;;;;;;13.78;81.21;101805.06;7388346;19;20018;-58
2023/05/12 02:06:57;;;;;;;16.75;13.38;;;;;;;13.76;81.29;101802.47;7390664;19;20043;-57
2023/05/12 02:09:24;;;;;;;15.70;13.90;;;;;;;13.76;80.85;101801.63;7392827;19;20021;-58
2023/05/12 02:11:51;;;;;;;14.45;12.40;;;;;;;13.81;80.82;101799.50;7394903;19;20045;-58
2023/05/12 02:14:18;;;;;;;14.10;12.02;;;;;;;13.82;80.80;101796.75;7395549;19;20018;-58
2023/05/12 02:16:48;;;;;;;14.65;12.77;;;;;;;13.80;80.63;101793.31;7395687;19;20035;-58
2023/05/12 02:19:15;;;;;;;16.90;14.43;;;;;;;13.77;80.81;101808.66;7393482;19;20027;-58
2023/05/12 02:21:44;;;;;;;15.85;14.15;;;;;;;13.79;80.89;101806.75;7393791;19;20014;-58
2023/05/12 02:24:12;;;;;;;17.38;15.43;;;;;;;13.79;80.71;101802.28;7395888;19;20022;-58
2023/05/12 02:26:40;;;;;;;18.45;15.85;;;;;;;13.81;80.51;101805.69;7397090;19;20015;-58
2023/05/12 02:29:09;;;;;;;18.20;15.02;;;;;;;13.75;81.06;101808.78;7395008;19;20019;-58
2023/05/12 02:31:36;;;;;;;17.02;15.13;;;;;;;13.80;80.66;101801.31;7397813;19;20022;-58
2023/05/12 02:34:03;;;;;;;17.83;15.55;;;;;;;13.80;80.61;101809.28;7398898;19;20035;-58
2023/05/12 02:36:32;;;;;;;17.95;15.98;;;;;;;13.77;80.69;101798.84;7394961;19;20019;-58
2023/05/12 02:38:59;;;;;;;18.70;15.82;;;;;;;13.75;80.72;101803.44;7396345;19;20041;-58
2023/05/12 02:41:27;;;;;;;18.80;16.20;;;;;;;13.81;80.55;101796.84;7395474;19;20088;-58
2023/05/12 02:43:54;;;;;;;19.23;17.08;;;;;;;13.88;80.43;101808.75;7396464;19;20028;-58
2023/05/12 02:46:21;;;;;;;21.05;16.83;;;;;;;13.69;81.02;101806.53;7395559;19;20015;-58
2023/05/12 02:48:48;;;;;;;20.67;18.05;;;;;;;13.53;81.74;101806.75;7396029;19;20478;-58
2023/05/12 02:51:15;;;;;;;20.10;17.67;;;;;;;13.64;81.67;101803.34;7397905;19;20029;-58
2023/05/12 02:53:42;;;;;;;18.60;16.60;;;;;;;13.80;81.20;101803.97;7398035;19;20011;-58
2023/05/12 02:56:09;;;;;;;22.83;19.83;;;;;;;13.71;81.38;101812.63;7395553;19;20032;-58
2023/05/12 02:58:36;;;;;;;23.23;20.73;;;;;;;13.53;81.87;101808.56;7395647;19;20014;-58
2023/05/12 03:01:03;;;;;;;23.80;20.45;;;;;;;13.60;81.92;101807.19;7397526;19;20023;-58
2023/05/12 03:03:37;;;;;;;23.20;20.38;;;;;;;13.61;82.09;101807.06;7396795;19;20043;-58
2023/05/12 03:06:05;;;;;;;23.30;20.80;;;;;;;13.65;81.68;101807.72;7397242;19;20014;-58
2023/05/12 03:08:32;;;;;;;23.17;19.63;;;;;;;13.76;81.43;101809.63;7395308;19;20087;-58
2023/05/12 03:10:59;;;;;;;27.35;21.10;;;;;;;13.74;81.49;101800.91;7397485;19;20018;-58
2023/05/12 03:13:26;;;;;;;23.35;20.85;;;;;;;13.72;81.59;101808.13;7396704;19;20015;-58
2023/05/12 03:15:54;;;;;;;24.05;21.25;;;;;;;13.82;81.01;101806.53;7395326;19;20051;-58
2023/05/12 03:18:21;;;;;;;21.95;19.60;;;;;;;13.87;80.77;101802.59;7393764;19;20019;-58
2023/05/12 03:20:48;;;;;;;22.52;20.10;;;;;;;13.85;80.77;101803.63;7396969;19;20019;-58
2023/05/12 03:23:15;;;;;;;21.95;19.60;;;;;;;13.78;81.19;101813.03;7397768;19;20010;-58
2023/05/12 03:25:42;;;;;;;20.70;18.50;;;;;;;13.73;81.36;101821.34;7393162;19;20021;-58
2023/05/12 03:28:10;;;;;;;21.58;19.20;;;;;;;13.70;81.56;101812.72;7392526;19;20041;-58
2023/05/12 03:30:37;;;;;;;24.35;21.02;;;;;;;13.69;81.66;101830.50;7390675;19;20497;-58
2023/05/12 03:33:04;;;;;;;24.52;20.85;;;;;;;13.73;81.23;101831.13;7393822;19;20022;-58
2023/05/12 03:35:31;;;;;;;23.33;20.75;;;;;;;13.77;81.14;101829.97;7391935;19;20022;-58
2023/05/12 03:37:58;;;;;;;25.85;23.08;;;;;;;13.80;81.17;101840.41;7393676;19;20039;-58
2023/05/12 03:40:25;;;;;;;24.85;22.15;;;;;;;13.86;81.11;101834.66;7392260;19;20051;-58
2023/05/12 03:42:52;;;;;;;23.15;20.60;;;;;;;13.85;81.32;101824.94;7393441;19;20345;-58
2023/05/12 03:45:20;;;;;;;22.45;20.05;;;;;;;13.87;81.17;101820.38;7387692;19;20041;-58
2023/05/12 03:47:47;;;;;;;25.30;22.60;;;;;;;13.84;81.00;101826.75;7393329;19;20026;-60
2023/05/12 03:50:14;;;;;;;24.70;21.40;;;;;;;13.81;81.03;101827.00;7390077;19;20039;-58
2023/05/12 03:52:41;;;;;;;23.88;20.77;;;;;;;13.82;81.13;101828.69;7392707;19;20378;-59
2023/05/12 03:55:09;;;;;;;25.63;21.38;;;;;;;13.82;81.10;101830.50;7389854;19;20033;-58
2023/05/12 03:57:37;;;;;;;23.58;20.95;;;;;;;13.83;81.26;101835.72;7392731;19;20101;-59
2023/05/12 04:00:07;;;;;;;23.80;21.30;;;;;;;13.93;80.81;101840.38;7390084;19;20037;-58
2023/05/12 04:02:34;;;;;;;26.38;21.20;;;;;;;13.85;81.01;101844.47;7392504;19;20026;-58
2023/05/12 04:05:01;;;;;;;26.27;22.65;;;;;;;13.86;80.91;101839.97;7392094;19;20218;-58
2023/05/12 04:07:28;;;;;;;25.83;22.90;;;;;;;13.88;80.81;101846.88;7391816;19;20025;-59
2023/05/12 04:09:55;;;;;;;24.80;22.00;;;;;;;13.86;80.72;101850.63;7389976;19;20018;-58
2023/05/12 04:12:22;;;;;;;25.05;21.33;;;;;;;13.86;80.80;101846.16;7390137;19;20493;-58
2023/05/12 04:14:50;;;;;;;25.27;21.48;;;;;;;13.90;80.57;101842.31;7391733;19;20039;-59
2023/05/12 04:17:20;;;;;;;25.60;22.30;;;;;;;13.93;80.69;101853.69;7389897;19;20019;-58
2023/05/12 04:19:47;;;;;;;27.55;23.77;;;;;;;13.88;80.95;101859.34;7387887;19;20035;-59
2023/05/12 04:22:14;;;;;;;26.15;22.85;;;;;;;13.87;80.86;101860.31;7391567;19;20015;-58
2023/05/12 04:24:41;;;;;;;26.48;23.50;;;;;;;13.80;81.13;101869.69;7391027;19;20014;-58
2023/05/12 04:27:08;;;;;;;27.13;22.90;;;;;;;13.80;81.11;101865.22;7391291;19;20015;-58
2023/05/12 04:29:35;;;;;;;26.60;23.70;;;;;;;13.76;81.30;101857.53;7386807;19;20023;-58
2023/05/12 04:32:03;;;;;;;28.65;24.48;;;;;;;13.84;81.10;101868.50;7390294;19;20019;-58
2023/05/12 04:34:30;;;;;;;28.17;23.75;;;;;;;13.82;80.96;101870.44;7391141;19;20033;-58
2023/05/12 04:36:57;;;;;;;27.45;23.77;;;;;;;13.83;81.00;101873.00;7389556;19;20018;-58
2023/05/12 04:39:24;;;;;;;28.63;25.20;;;;;;;13.84;81.00;101873.84;7388850;19;20021;-58
2023/05/12 04:41:51;;;;;;;27.63;24.40;;;;;;;13.86;80.83;101874.59;7389970;19;20015;-58
2023/05/12 04:44:18;;;;;;;27.23;24.33;;;;;;;13.83;81.14;101877.47;7391112;19;20015;-59
2023/05/12 04:46:45;;;;;;;28.85;25.75;;;;;;;13.83;81.17;101874.81;7389120;19;20018;-58
2023/05/12 04:49:12;;;;;;;29.33;26.17;;;;;;;13.82;81.29;101881.94;7388495;19;20033;-59
2023/05/12 04:51:41;;;;;;;28.27;25.25;;;;;;;13.82;81.31;101889.09;7389828;19;20035;-58
2023/05/12 04:54:09;;;;;;;29.90;25.80;;;;;;;13.88;81.09;101886.81;7390179;19;20142;-58
2023/05/12 04:56:36;;;;;;;28.92;25.73;;;;;;;13.94;80.70;101888.22;7389207;19;20066;-58
2023/05/12 04:59:03;;;;;;;29.65;26.48;;;;;;;13.94;81.02;101895.38;7389160;19;20019;-59
2023/05/12 05:01:30;;;;;;;29.70;25.95;;;;;;;13.97;81.03;101897.81;7390189;19;20018;-59
2023/05/12 05:03:57;;;;;;;28.90;25.08;;;;;;;14.06;80.81;101899.84;7390553;19;20015;-59
2023/05/12 05:06:24;;;;;;;28.80;25.73;;;;;;;14.07;80.68;101896.19;7389687;19;20026;-59
2023/05/12 05:08:52;;;;;;;30.60;26.55;;;;;;;14.04;80.70;101899.06;7388913;19;20018;-59
2023/05/12 05:11:20;;;;;;;30.77;25.92;;;;;;;14.06;80.71;101894.50;7389617;19;20035;-59
2023/05/12 05:13:47;;;;;;;30.70;26.02;;;;;;;14.11;80.54;101908.34;7390300;19;20479;-59
2023/05/12 05:16:14;;;;;;;29.45;26.17;;;;;;;14.11;80.85;101917.19;7386828;19;20019;-58
2023/05/12 05:18:45;;;;;;;29.92;26.73;;;;;;;14.15;80.76;101918.66;7387092;19;20039;-58
2023/05/12 05:21:15;;;;;;;32.25;28.38;;;;;;;14.11;80.89;101913.66;7390007;19;20023;-59
2023/05/12 05:23:42;;;;;;;31.60;28.20;;;;;;;14.07;81.18;101918.34;7388799;19;20022;-59
2023/05/12 05:26:09;;;;;;;29.48;26.05;;;;;;;14.17;80.76;101915.06;7389379;19;20026;-58
2023/05/12 05:28:38;;;;;;;29.20;26.10;;;;;;;14.24;80.57;101921.69;7388430;19;20074;-58
2023/05/12 05:31:06;;;;;;;29.65;26.27;;;;;;;14.23;80.70;101923.50;7390342;19;20026;-59
2023/05/12 05:33:33;;;;;;;28.83;24.58;;;;;;;14.22;80.78;101932.41;7389982;19;20090;-58
2023/05/12 05:36:00;;;;;;;26.90;23.85;;;;;;;14.22;81.02;101935.09;7389211;19;20022;-58
2023/05/12 05:38:27;;;;;;;27.38;24.40;;;;;;;14.30;80.90;101932.72;7387944;19;20021;-58
2023/05/12 05:40:54;;;;;;;27.55;24.52;;;;;;;14.42;80.22;101935.50;7390178;19;20029;-58
2023/05/12 05:43:21;;;;;;;27.35;24.08;;;;;;;14.47;80.09;101931.56;7396414;19;20015;-58
2023/05/12 05:45:49;;;;;;;30.42;24.92;;;;;;;14.48;79.96;101935.06;7396713;19;20022;-58
2023/05/12 05:48:16;;;;;;;25.35;22.45;;;;;;;14.50;80.01;101943.81;7396108;19;20022;-57
2023/05/12 05:50:44;;;;;;;26.90;23.05;;;;;;;14.47;80.28;101946.69;7396901;19;20186;-57
2023/05/12 05:53:11;;;;;;;25.25;22.02;;;;;;;14.46;80.25;101940.53;7394191;19;20142;-57
2023/05/12 05:55:38;;;;;;;23.55;21.00;;;;;;;14.52;80.29;101939.25;7395043;19;20029;-57
2023/05/12 05:58:05;;;;;;;25.38;21.63;;;;;;;14.51;79.97;101943.72;7395318;19;20034;-57
2023/05/12 06:00:32;;;;;;;22.92;20.17;;;;;;;14.57;80.23;101939.75;7394561;19;20018;-57
2023/05/12 06:02:59;;;;;;;24.10;20.38;;;;;;;14.60;80.07;101945.72;7397125;19;20015;-58
2023/05/12 06:05:26;;;;;;;22.65;20.20;;;;;;;14.64;80.25;101949.03;7395423;19;20022;-57
2023/05/12 06:07:53;;;;;;;22.30;19.65;;;;;;;14.67;80.29;101948.81;7396639;19;20022;-58
2023/05/12 06:10:20;;;;;;;20.88;18.67;;;;;;;14.74;80.00;101950.09;7395326;19;20494;-57
2023/05/12 06:12:49;;;;;;;21.92;19.42;;;;;;;14.82;79.92;101947.72;7396288;19;20049;-57
2023/05/12 06:15:17;;;;;;;20.52;17.95;;;;;;;14.85;79.79;101963.50;7394485;19;20015;-57
2023/05/12 06:17:44;;;;;;;19.33;17.17;;;;;;;14.87;79.86;101958.03;7393714;19;20022;-58
2023/05/12 06:20:12;;;;;;;20.20;17.63;;;;;;;14.97;79.68;101956.41;7392167;19;20022;-58
2023/05/12 06:22:41;;;;;;;21.13;17.48;;;;;;;14.97;79.74;101959.09;7396153;19;20081;-57
2023/05/12 06:25:08;;;;;;;18.88;16.48;;;;;;;15.02;79.59;101962.25;7395534;19;20029;-57
2023/05/12 06:27:35;;;;;;;19.30;17.20;;;;;;;15.04;79.67;101971.00;7395600;19;20032;-59
2023/05/12 06:30:03;;;;;;;20.60;16.23;;;;;;;15.15;79.19;101969.34;7391994;19;20024;-58
2023/05/12 06:32:30;;;;;;;20.50;15.68;;;;;;;15.22;79.13;101982.13;7395742;19;20018;-58
2023/05/12 06:34:57;;;;;;;20.92;15.90;;;;;;;15.29;78.76;101967.38;7393780;19;20015;-58
2023/05/12 06:37:24;;;;;;;17.80;15.38;;;;;;;15.33;78.70;101978.69;7393429;19;20019;-58
2023/05/12 06:39:51;;;;;;;16.67;14.85;;;;;;;15.39;78.76;101985.38;7392681;19;20021;-57
2023/05/12 06:42:18;;;;;;;18.15;15.52;;;;;;;15.40;78.97;101985.25;7393091;19;20499;-57
2023/05/12 06:44:45;;;;;;;19.10;14.80;;;;;;;15.55;78.62;101978.78;7394804;19;20018;-57
2023/05/12 06:47:12;;;;;;;16.52;13.55;;;;;;;15.73;78.27;101979.25;7395171;19;20018;-58
2023/05/12 06:49:39;;;;;;;16.88;13.73;;;;;;;15.86;77.76;101978.31;7392454;19;20018;-58
2023/05/12 06:52:06;;;;;;;16.08;13.15;;;;;;;15.95;77.91;101981.16;7395161;19;20529;-59
2023/05/12 06:54:33;;;;;;;14.38;12.68;;;;;;;16.03;77.99;101983.22;7392727;19;20022;-58
2023/05/12 06:57:00;;;;;;;15.77;11.68;;;;;;;15.99;77.44;101981.75;7392789;19;20011;-58
2023/05/12 06:59:27;;;;;;;16.70;12.02;;;;;;;15.93;77.59;101988.41;7392642;19;20019;-58
2023/05/12 07:01:54;;;;;;;13.95;12.02;;;;;;;15.78;78.60;101990.44;7392679;19;20381;-58
2023/05/12 07:04:22;;;;;;;13.43;11.18;;;;;;;15.71;78.82;101989.19;7394066;19;20018;-57
2023/05/12 07:06:51;;;;;;;14.38;11.43;;;;;;;15.78;78.71;102000.25;7392604;19;20015;-57
2023/05/12 07:09:18;;;;;;;15.52;11.38;;;;;;;15.85;78.39;102001.50;7391871;19;20041;-57
2023/05/12 07:11:45;;;;;;;13.70;11.23;;;;;;;15.89;78.33;101994.09;7392905;19;20035;-59
2023/05/12 07:14:12;;;;;;;15.18;11.25;;;;;;;15.95;78.26;101996.28;7394200;19;20029;-58
2023/05/12 07:16:39;;;;;;;13.75;11.57;;;;;;;16.00;77.93;101991.47;7393033;19;20022;-57
2023/05/12 07:19:08;;;;;;;13.85;11.27;;;;;;;16.14;77.95;102004.63;7392216;19;20524;-57
2023/05/12 07:21:36;;;;;;;14.38;10.57;;;;;;;16.24;77.38;102005.59;7393813;19;20011;-58
2023/05/12 07:24:04;;;;;;;15.60;9.77;;;;;;;16.25;76.22;102006.44;7393262;19;20023;-58
2023/05/12 07:26:32;;;;;;;14.73;10.10;;;;;;;16.22;75.52;101998.69;7393414;19;20042;-58
2023/05/12 07:28:59;;;;;;;12.13;10.32;;;;;;;16.30;75.59;101998.94;7389521;19;20018;-58
2023/05/12 07:31:27;;;;;;;12.85;10.75;;;;;;;16.36;75.97;101994.91;7393975;19;20022;-58
2023/05/12 07:33:54;;;;;;;13.55;10.20;;;;;;;16.34;75.40;101989.72;7393983;19;20043;-58
2023/05/12 07:36:22;;;;;;;13.93;10.50;;;;;;;16.39;74.88;101997.34;7391285;19;20038;-58
2023/05/12 07:38:49;;;;;;;14.77;9.95;;;;;;;16.48;74.71;101997.50;7390353;19;20025;-57
2023/05/12 07:41:16;;;;;;;11.13;9.35;;;;;;;16.68;74.28;102003.09;7393800;19;20025;-58
2023/05/12 07:43:44;;;;;;;11.68;8.85;;;;;;;16.75;73.90;101994.50;7393217;19;20018;-58
2023/05/12 07:46:11;;;;;;;12.43;8.93;;;;;;;16.74;74.04;101998.13;7392665;19;20018;-58
2023/05/12 07:48:39;;;;;;;11.45;8.18;;;;;;;16.79;73.84;102003.13;7392077;19;20019;-58
2023/05/12 07:51:06;;;;;;;10.88;8.40;;;;;;;16.85;73.17;102002.63;7392855;19;20022;-58
2023/05/12 07:53:34;;;;;;;11.73;8.30;;;;;;;16.91;72.75;102007.47;7393073;19;20499;-58
2023/05/12 07:56:01;;;;;;;11.13;8.40;;;;;;;17.00;72.48;102004.06;7392448;19;20026;-57
2023/05/12 07:58:28;;;;;;;10.68;8.25;;;;;;;17.07;72.12;102003.56;7390445;19;20026;-58
2023/05/12 08:00:57;;;;;;;10.23;7.78;;;;;;;17.10;71.87;102014.03;7392492;19;20022;-57
2023/05/12 08:03:25;;;;;;;11.77;7.95;;;;;;;17.13;71.35;102011.06;7392017;19;20483;-57
2023/05/12 08:05:52;;;;;;;10.82;7.32;;;;;;;17.18;71.37;102012.44;7391890;19;20086;-57
2023/05/12 08:08:19;;;;;;;9.15;6.72;;;;;;;17.23;70.82;102004.84;7391913;19;20018;-58
2023/05/12 08:10:46;;;;;;;9.27;6.68;;;;;;;17.28;70.75;102012.50;7392266;19;20050;-57
2023/05/12 08:13:13;;;;;;;9.27;6.07;;;;;;;17.32;70.30;102021.13;7391131;19;20078;-57
2023/05/12 08:15:40;;;;;;;9.70;6.82;;;;;;;17.34;70.71;102012.00;7391564;19;20083;-57
2023/05/12 08:18:07;;;;;;;10.13;6.60;;;;;;;17.34;71.13;102016.53;7390167;19;20018;-57
2023/05/12 08:20:34;;;;;;;9.10;6.30;;;;;;;17.35;70.58;102019.06;7391161;19;20015;-57
2023/05/12 08:23:01;;;;;;;9.43;6.60;;;;;;;17.41;70.12;102013.22;7392422;19;20074;-57
2023/05/12 08:25:29;;;;;;;10.65;6.80;;;;;;;17.48;69.20;102010.88;7391877;19;20042;-57
2023/05/12 08:27:58;;;;;;;10.70;6.82;;;;;;;17.52;69.21;102007.81;7391486;19;20010;-58
2023/05/12 08:30:25;;;;;;;9.07;6.28;;;;;;;17.51;69.80;102011.50;7391166;19;20119;-57
2023/05/12 08:32:56;;;;;;;9.85;7.18;;;;;;;17.51;69.71;102005.25;7391620;19;20089;-57
2023/05/12 08:35:25;;;;;;;10.07;7.00;;;;;;;17.43;70.15;102005.88;7390797;19;20019;-57
2023/05/12 08:37:52;;;;;;;10.15;6.40;;;;;;;17.38;70.15;102018.81;7389946;19;20015;-58
2023/05/12 08:40:21;;;;;;;12.77;6.43;;;;;;;17.52;68.21;102023.03;7391328;19;20126;-58
2023/05/12 08:43:17;;;;;;;11.18;6.50;;;;;;;17.54;67.17;102016.56;7389397;19;20023;-58
2023/05/12 08:45:46;;;;;;;10.77;6.45;;;;;;;17.57;67.63;102011.94;7389443;19;20018;-57
2023/05/12 08:48:15;;;;;;;12.35;6.40;;;;;;;17.67;67.35;102016.41;7390567;19;20356;-59
2023/05/12 08:50:43;;;;;;;11.07;6.65;;;;;;;17.70;67.83;102018.81;7390788;19;20021;-58
2023/05/12 08:53:12;;;;;;;10.02;6.43;;;;;;;17.73;67.96;102015.03;7390465;19;20019;-58
2023/05/12 08:55:43;;;;;;;11.43;6.28;;;;;;;17.79;67.77;102011.88;7388285;19;20027;-57
2023/05/12 08:58:31;;;;;;;11.55;6.40;;;;;;;17.84;68.08;102020.38;7388108;19;20029;-57
2023/05/12 09:01:10;;;;;;;11.07;6.25;;;;;;;17.93;67.55;102016.06;7391470;19;20019;-57
2023/05/12 09:03:41;;;;;;;9.60;6.13;;;;;;;17.98;66.91;102017.38;7388737;19;20039;-57
2023/05/12 09:06:10;;;;;;;10.00;5.95;;;;;;;18.00;65.91;102015.41;7388986;19;20014;-57
2023/05/12 09:08:38;;;;;;;8.65;4.85;;;;;;;18.03;65.76;102012.47;7389126;19;20018;-58
2023/05/12 09:11:07;;;;;;;9.35;5.47;;;;;;;18.15;65.82;102017.78;7390290;19;20055;-57
2023/05/12 09:13:59;;;;;;;9.63;6.25;;;;;;;18.31;64.25;102012.78;7390166;19;20339;-57
2023/05/12 09:16:30;;;;;;;9.93;5.63;;;;;;;18.20;65.47;102023.56;7390978;19;20023;-57
2023/05/12 09:18:59;;;;;;;9.63;5.38;;;;;;;18.22;65.24;102027.84;7395675;19;20023;-57
2023/05/12 09:21:27;;;;;;;9.35;5.50;;;;;;;18.27;64.88;102030.97;7396528;19;20433;-57
2023/05/12 09:23:59;;;;;;;8.25;5.13;;;;;;;18.25;65.05;102021.38;7398078;19;20021;-57
2023/05/12 09:26:27;;;;;;;9.40;5.25;;;;;;;18.26;65.02;102023.06;7397433;19;20015;-57
2023/05/12 09:29:07;;;;;;;11.40;5.57;;;;;;;18.26;64.38;102026.59;7395479;19;20032;-58
2023/05/12 09:31:35;;;;;;;12.45;5.20;;;;;;;18.26;63.56;102029.28;7398482;19;20025;-57
2023/05/12 09:34:09;;;;;;;10.13;4.72;;;;;;;18.32;62.24;102025.22;7396273;19;20026;-57
2023/05/12 09:36:36;;;;;;;7.63;5.05;;;;;;;18.39;61.72;102028.22;7397217;19;20018;-57
2023/05/12 09:39:05;;;;;;;9.40;4.90;;;;;;;18.38;61.77;102027.34;7395596;19;20014;-57
2023/05/12 09:41:37;;;;;;;12.35;5.72;;;;;;;18.55;62.33;102033.13;7397416;19;20010;-57
2023/05/12 09:44:05;;;;;;;7.15;4.95;;;;;;;18.59;61.65;102031.88;7395426;19;20018;-57
2023/05/12 09:46:33;;;;;;;6.82;4.80;;;;;;;18.67;61.03;102030.19;7395521;19;20033;-57
2023/05/12 09:49:04;;;;;;;9.23;5.53;;;;;;;18.83;59.47;102027.03;7394721;19;20018;-58
2023/05/12 09:51:31;;;;;;;10.27;5.78;;;;;;;18.73;60.63;102031.50;7397456;19;20018;-57
2023/05/12 09:53:59;;;;;;;13.55;5.70;;;;;;;18.74;61.06;102030.56;7393175;19;20022;-57
2023/05/12 09:56:30;;;;;;;8.07;4.72;;;;;;;18.68;60.96;102031.88;7396123;19;20022;-58
2023/05/12 09:58:57;;;;;;;8.35;5.18;;;;;;;18.66;60.88;102035.69;7391786;19;20035;-58
2023/05/12 10:01:25;;;;;;;10.50;4.88;;;;;;;18.70;60.83;102031.78;7397542;19;20022;-58
2023/05/12 10:03:55;;;;;;;8.48;5.07;;;;;;;18.75;60.25;102030.41;7396709;19;20022;-58
2023/05/12 10:06:29;;;;;;;9.40;5.07;;;;;;;18.85;59.80;102037.63;7394024;19;20022;-58
2023/05/12 10:09:15;;;;;;;;;;;;;;;18.70;59.02;102035.34;7393473;19;20015;-57
2023/05/12 10:11:43;;;;;;;8.95;5.18;;;;;;;18.73;60.53;102039.56;7396162;19;19922;-58
2023/05/12 10:14:12;;;;;;;6.72;4.55;;;;;;;18.81;60.12;102033.53;7395034;19;20021;-58
2023/05/12 10:16:40;;;;;;;7.88;4.60;;;;;;;18.88;60.24;102024.78;7395270;19;20037;-58
2023/05/12 10:19:08;;;;;;;10.00;5.28;;;;;;;18.90;60.30;102035.41;7391216;19;20026;-58
2023/05/12 10:21:36;;;;;;;7.82;5.05;;;;;;;18.98;59.43;102030.19;7394342;19;20027;-58
2023/05/12 10:24:04;;;;;;;8.27;4.53;;;;;;;18.97;58.79;102025.84;7394762;19;20026;-57
2023/05/12 10:26:33;;;;;;;8.57;4.78;;;;;;;19.13;57.73;102020.78;7393201;19;20484;-57
2023/05/12 10:29:01;;;;;;;9.32;4.18;;;;;;;19.17;57.21;102024.03;7389099;19;20022;-57
2023/05/12 10:31:29;;;;;;;7.57;4.18;;;;;;;19.15;57.52;102024.16;7395345;19;20022;-57
2023/05/12 10:34:00;;;;;;;7.05;4.40;;;;;;;19.22;56.93;102016.41;7394296;19;20039;-57
2023/05/12 10:36:28;;;;;;;8.80;4.57;;;;;;;19.18;57.71;102029.25;7395313;19;20024;-58
2023/05/12 10:39:04;;;;;;;11.05;4.25;;;;;;;19.24;56.14;102019.81;7388169;19;20015;-56
2023/05/12 10:41:33;;;;;;;7.13;4.35;;;;;;;19.34;56.21;102027.88;7394868;19;20018;-57
2023/05/12 10:44:00;;;;;;;8.73;4.68;;;;;;;19.27;56.01;102024.03;7393184;19;20022;-57
2023/05/12 10:46:28;;;;;;;9.70;4.43;;;;;;;19.23;55.48;102021.66;7394066;19;20480;-57
2023/05/12 10:49:05;;;;;;;6.20;3.78;;;;;;;19.33;55.46;102020.81;7393337;19;20025;-58
2023/05/12 10:51:41;;;;;;;8.13;3.78;;;;;;;19.47;54.26;102026.63;7394693;19;20022;-57
2023/05/12 10:54:11;;;;;;;10.18;3.92;;;;;;;19.72;54.39;102027.09;7394995;19;20022;-57
2023/05/12 10:56:38;;;;;;;9.75;4.68;;;;;;;19.85;54.13;102014.22;7393981;19;20026;-58
2023/05/12 10:59:27;;;;;;;8.85;4.80;;;;;;;20.07;52.36;102029.22;7389947;19;20035;-58
2023/05/12 11:01:57;;;;;;;7.35;4.40;;;;;;;20.06;52.45;102019.41;7395261;19;20018;-58
2023/05/12 11:04:54;;;;;;;8.35;4.88;;;;;;;20.12;51.64;102026.94;7390160;19;20082;-58
2023/05/12 11:07:25;;;;;;;6.53;3.60;;;;;;;19.94;51.67;102023.25;7395168;19;20018;-58
2023/05/12 11:09:55;;;;;;;6.63;3.75;;;;;;;20.07;50.42;102025.63;7391906;19;20043;-58
2023/05/12 11:12:31;;;;;;;7.97;3.97;;;;;;;19.95;50.23;102027.63;7394318;19;20083;-58
2023/05/12 11:15:00;;;;;;;6.85;3.92;;;;;;;19.91;50.04;102026.22;7392091;19;20070;-58
2023/05/12 11:17:28;;;;;;;8.65;3.95;;;;;;;20.00;49.57;102022.69;7394036;19;20022;-58
2023/05/12 11:19:55;;;;;;;9.65;4.15;;;;;;;20.01;49.85;102019.00;7391605;19;20086;-57